sensor_id;sensor_type;location;lat;lon;timestamp;temperature;humidity
18624;DHT22;9441;51.420;7.036;2023-01-01T00:00:27;15.90;99.90
18624;DHT22;9441;51.420;7.036;2023-01-01T00:01:29;16.00;99.90
18624;DHT22;9441;51.420;7.036;2023-01-01T00:02:30;15.90;99.90
18624;DHT22;9441;51.420;7.036;2023-01-01T00:03:33;15.90;99.90
18624;DHT22;9441;51.420;7.036;2023-01-01T00:04:34;15.90;99.90
18624;DHT22;9441;51.420;7.036;2023-01-01T00:05:37;15.90;99.90
18624;DHT22;9441;51.420;7.036;2023-01-01T00:06:38;15.90;99.90
18624;DHT22;9441;51.420;7.036;2023-01-01T00:07:40;15.90;99.90
18624;DHT22;9441;51.420;7.036;2023-01-01T00:08:42;15.90;99.90
18624;DHT22;9441;51.420;7.036;2023-01-01T00:09:43;15.80;99.90
18624;DHT22;9441;51.420;7.036;2023-01-01T00:11:03;15.90;99.90
18624;DHT22;9441;51.420;7.036;2023-01-01T00:12:06;15.90;99.90
18624;DHT22;9441;51.420;7.036;2023-01-01T00:13:07;16.00;99.90
18624;DHT22;9441;51.420;7.036;2023-01-01T00:14:09;15.90;99.90
18624;DHT22;9441;51.420;7.036;2023-01-01T00:15:11;15.90;99.90
18624;DHT22;9441;51.420;7.036;2023-01-01T00:16:13;15.90;99.90
18624;DHT22;9441;51.420;7.036;2023-01-01T00:17:15;16.00;99.90
18624;DHT22;9441;51.420;7.036;2023-01-01T00:18:16;16.00;99.90
18624;DHT22;9441;51.420;7.036;2023-01-01T00:19:18;16.00;99.90
18624;DHT22;9441;51.420;7.036;2023-01-01T00:20:20;15.90;99.90
18624;DHT22;9441;51.420;7.036;2023-01-01T00:21:22;15.90;99.90
18624;DHT22;9441;51.420;7.036;2023-01-01T00:22:24;15.80;99.90
18624;DHT22;9441;51.420;7.036;2023-01-01T00:23:25;15.90;99.90
18624;DHT22;9441;51.420;7.036;2023-01-01T00:24:27;15.90;99.90
18624;DHT22;9441;51.420;7.036;2023-01-01T00:25:28;15.80;99.90
18624;DHT22;9441;51.420;7.036;2023-01-01T00:26:32;15.80;99.90
18624;DHT22;9441;51.420;7.036;2023-01-01T00:27:33;15.70;99.90
18624;DHT22;9441;51.420;7.036;2023-01-01T00:28:35;15.70;99.90
18624;DHT22;9441;51.420;7.036;2023-01-01T00:29:37;15.70;99.90
18624;DHT22;9441;51.420;7.036;2023-01-01T00:30:39;15.70;99.90
18624;DHT22;9441;51.420;7.036;2023-01-01T00:31:42;15.70;99.90
18624;DHT22;9441;51.420;7.036;2023-01-01T00:32:45;15.70;99.90
18624;DHT22;9441;51.420;7.036;2023-01-01T00:33:51;15.70;99.90
18624;DHT22;9441;51.420;7.036;2023-01-01T00:34:52;15.60;99.90
18624;DHT22;9441;51.420;7.036;2023-01-01T00:35:54;15.70;99.90
18624;DHT22;9441;51.420;7.036;2023-01-01T00:36:56;15.70;99.90
18624;DHT22;9441;51.420;7.036;2023-01-01T00:37:58;15.70;99.90
18624;DHT22;9441;51.420;7.036;2023-01-01T00:39:01;15.60;99.90
18624;DHT22;9441;51.420;7.036;2023-01-01T00:40:04;15.60;99.90
18624;DHT22;9441;51.420;7.036;2023-01-01T00:41:06;15.60;99.90
18624;DHT22;9441;51.420;7.036;2023-01-01T00:42:09;15.60;99.90
18624;DHT22;9441;51.420;7.036;2023-01-01T00:43:11;15.60;99.90
18624;DHT22;9441;51.420;7.036;2023-01-01T00:44:13;15.70;99.90
18624;DHT22;9441;51.420;7.036;2023-01-01T00:45:14;15.60;99.90
18624;DHT22;9441;51.420;7.036;2023-01-01T00:46:16;15.60;99.90
18624;DHT22;9441;51.420;7.036;2023-01-01T00:47:19;15.60;99.90
18624;DHT22;9441;51.420;7.036;2023-01-01T00:48:21;15.70;99.90
18624;DHT22;9441;51.420;7.036;2023-01-01T00:49:22;15.60;99.90
18624;DHT22;9441;51.420;7.036;2023-01-01T00:50:24;15.70;99.90
18624;DHT22;9441;51.420;7.036;2023-01-01T00:51:25;15.70;99.90
18624;DHT22;9441;51.420;7.036;2023-01-01T00:52:27;15.80;99.90
18624;DHT22;9441;51.420;7.036;2023-01-01T00:53:28;15.70;99.90
18624;DHT22;9441;51.420;7.036;2023-01-01T00:54:31;15.70;99.90
18624;DHT22;9441;51.420;7.036;2023-01-01T00:55:32;15.70;99.90
18624;DHT22;9441;51.420;7.036;2023-01-01T00:56:34;15.60;99.90
18624;DHT22;9441;51.420;7.036;2023-01-01T00:57:35;15.70;99.90
18624;DHT22;9441;51.420;7.036;2023-01-01T00:58:37;15.70;99.90
18624;DHT22;9441;51.420;7.036;2023-01-01T00:59:39;15.80;99.90
18624;DHT22;9441;51.420;7.036;2023-01-01T01:00:40;15.70;99.90
18624;DHT22;9441;51.420;7.036;2023-01-01T01:01:42;15.80;99.90
18624;DHT22;9441;51.420;7.036;2023-01-01T01:02:45;15.80;99.90
18624;DHT22;9441;51.420;7.036;2023-01-01T01:03:47;15.70;99.90
18624;DHT22;9441;51.420;7.036;2023-01-01T01:04:48;15.70;99.90
18624;DHT22;9441;51.420;7.036;2023-01-01T01:05:50;15.60;99.90
18624;DHT22;9441;51.420;7.036;2023-01-01T01:06:51;15.70;99.90
18624;DHT22;9441;51.420;7.036;2023-01-01T01:07:53;15.70;99.90
18624;DHT22;9441;51.420;7.036;2023-01-01T01:08:54;15.70;99.90
18624;DHT22;9441;51.420;7.036;2023-01-01T01:09:56;15.60;99.90
18624;DHT22;9441;51.420;7.036;2023-01-01T01:11:03;15.70;99.90
18624;DHT22;9441;51.420;7.036;2023-01-01T01:12:06;15.60;99.90
18624;DHT22;9441;51.420;7.036;2023-01-01T01:13:07;15.70;99.90
18624;DHT22;9441;51.420;7.036;2023-01-01T01:14:09;15.60;99.90
18624;DHT22;9441;51.420;7.036;2023-01-01T01:15:10;15.70;99.90
18624;DHT22;9441;51.420;7.036;2023-01-01T01:16:14;15.60;99.90
18624;DHT22;9441;51.420;7.036;2023-01-01T01:17:15;15.60;99.90
18624;DHT22;9441;51.420;7.036;2023-01-01T01:18:19;15.70;99.90
18624;DHT22;9441;51.420;7.036;2023-01-01T01:19:20;15.60;99.90
18624;DHT22;9441;51.420;7.036;2023-01-01T01:20:23;15.50;99.90
18624;DHT22;9441;51.420;7.036;2023-01-01T01:21:25;15.50;99.90
18624;DHT22;9441;51.420;7.036;2023-01-01T01:22:28;15.50;99.90
18624;DHT22;9441;51.420;7.036;2023-01-01T01:23:29;15.60;99.90
18624;DHT22;9441;51.420;7.036;2023-01-01T01:24:31;15.60;99.90
18624;DHT22;9441;51.420;7.036;2023-01-01T01:25:33;15.60;99.90
18624;DHT22;9441;51.420;7.036;2023-01-01T01:26:34;15.60;99.90
18624;DHT22;9441;51.420;7.036;2023-01-01T01:27:36;15.50;99.90
18624;DHT22;9441;51.420;7.036;2023-01-01T01:28:38;15.50;99.90
18624;DHT22;9441;51.420;7.036;2023-01-01T01:29:40;15.50;99.90
18624;DHT22;9441;51.420;7.036;2023-01-01T01:30:42;15.50;99.90
18624;DHT22;9441;51.420;7.036;2023-01-01T01:31:43;15.50;99.90
18624;DHT22;9441;51.420;7.036;2023-01-01T01:32:45;15.50;99.90
18624;DHT22;9441;51.420;7.036;2023-01-01T01:33:48;15.60;99.20
18624;DHT22;9441;51.420;7.036;2023-01-01T01:34:50;15.50;99.90
18624;DHT22;9441;51.420;7.036;2023-01-01T01:35:52;15.50;99.90
18624;DHT22;9441;51.420;7.036;2023-01-01T01:36:53;15.50;99.90
18624;DHT22;9441;51.420;7.036;2023-01-01T01:37:55;15.40;99.90
18624;DHT22;9441;51.420;7.036;2023-01-01T01:38:56;15.40;99.90
18624;DHT22;9441;51.420;7.036;2023-01-01T01:39:58;15.40;99.90
18624;DHT22;9441;51.420;7.036;2023-01-01T01:41:00;15.30;99.90
18624;DHT22;9441;51.420;7.036;2023-01-01T01:42:02;15.30;99.90
18624;DHT22;9441;51.420;7.036;2023-01-01T01:43:04;15.40;99.90
18624;DHT22;9441;51.420;7.036;2023-01-01T01:45:47;15.40;97.70
18624;DHT22;9441;51.420;7.036;2023-01-01T01:46:49;15.40;99.90
18624;DHT22;9441;51.420;7.036;2023-01-01T01:47:53;15.30;94.00
18624;DHT22;9441;51.420;7.036;2023-01-01T01:49:00;15.40;84.00
18624;DHT22;9441;51.420;7.036;2023-01-01T01:50:08;15.40;88.20
18624;DHT22;9441;51.420;7.036;2023-01-01T01:51:12;15.40;78.80
18624;DHT22;9441;51.420;7.036;2023-01-01T01:52:15;15.40;73.40
18624;DHT22;9441;51.420;7.036;2023-01-01T01:53:20;15.40;74.20
18624;DHT22;9441;51.420;7.036;2023-01-01T01:54:26;15.40;76.90
18624;DHT22;9441;51.420;7.036;2023-01-01T01:55:30;15.40;64.90
18624;DHT22;9441;51.420;7.036;2023-01-01T01:56:39;15.40;72.90
18624;DHT22;9441;51.420;7.036;2023-01-01T01:57:42;15.30;73.00
18624;DHT22;9441;51.420;7.036;2023-01-01T01:58:45;15.30;74.70
18624;DHT22;9441;51.420;7.036;2023-01-01T01:59:48;15.30;62.60
18624;DHT22;9441;51.420;7.036;2023-01-01T02:00:52;15.30;59.60
18624;DHT22;9441;51.420;7.036;2023-01-01T02:01:55;15.40;54.60
18624;DHT22;9441;51.420;7.036;2023-01-01T02:03:01;15.30;58.30
18624;DHT22;9441;51.420;7.036;2023-01-01T02:04:05;15.30;58.50
18624;DHT22;9441;51.420;7.036;2023-01-01T02:05:07;15.30;63.40
18624;DHT22;9441;51.420;7.036;2023-01-01T02:06:09;15.20;68.00
18624;DHT22;9441;51.420;7.036;2023-01-01T02:07:13;15.20;73.20
18624;DHT22;9441;51.420;7.036;2023-01-01T02:08:15;15.10;60.50
18624;DHT22;9441;51.420;7.036;2023-01-01T02:09:17;15.30;56.50
18624;DHT22;9441;51.420;7.036;2023-01-01T02:10:19;15.20;56.80
18624;DHT22;9441;51.420;7.036;2023-01-01T02:11:20;15.20;52.40
18624;DHT22;9441;51.420;7.036;2023-01-01T02:12:23;15.20;48.50
18624;DHT22;9441;51.420;7.036;2023-01-01T02:13:24;15.20;51.80
18624;DHT22;9441;51.420;7.036;2023-01-01T02:14:26;15.20;44.70
18624;DHT22;9441;51.420;7.036;2023-01-01T02:15:29;15.20;51.80
18624;DHT22;9441;51.420;7.036;2023-01-01T02:16:36;15.10;56.10
18624;DHT22;9441;51.420;7.036;2023-01-01T02:17:43;15.10;46.30
18624;DHT22;9441;51.420;7.036;2023-01-01T02:18:49;15.10;47.10
18624;DHT22;9441;51.420;7.036;2023-01-01T02:20:06;15.20;44.40
18624;DHT22;9441;51.420;7.036;2023-01-01T02:21:14;15.20;39.70
18624;DHT22;9441;51.420;7.036;2023-01-01T02:22:22;15.20;40.50
18624;DHT22;9441;51.420;7.036;2023-01-01T02:25:11;15.10;43.00
18624;DHT22;9441;51.420;7.036;2023-01-01T02:26:44;15.10;43.10
18624;DHT22;9441;51.420;7.036;2023-01-01T02:27:53;15.20;40.50
18624;DHT22;9441;51.420;7.036;2023-01-01T02:29:01;15.10;35.40
18624;DHT22;9441;51.420;7.036;2023-01-01T02:30:07;15.10;38.10
18624;DHT22;9441;51.420;7.036;2023-01-01T02:31:11;15.10;40.10
18624;DHT22;9441;51.420;7.036;2023-01-01T02:32:18;15.10;36.30
18624;DHT22;9441;51.420;7.036;2023-01-01T02:33:24;15.10;36.60
18624;DHT22;9441;51.420;7.036;2023-01-01T02:34:29;15.10;34.10
18624;DHT22;9441;51.420;7.036;2023-01-01T02:35:35;15.10;38.80
18624;DHT22;9441;51.420;7.036;2023-01-01T02:36:42;15.00;42.40
18624;DHT22;9441;51.420;7.036;2023-01-01T02:37:46;15.00;35.80
18624;DHT22;9441;51.420;7.036;2023-01-01T02:38:51;15.00;47.70
18624;DHT22;9441;51.420;7.036;2023-01-01T02:39:55;15.00;39.30
18624;DHT22;9441;51.420;7.036;2023-01-01T02:41:01;15.10;34.60
18624;DHT22;9441;51.420;7.036;2023-01-01T02:42:04;15.10;30.00
18624;DHT22;9441;51.420;7.036;2023-01-01T02:43:07;15.10;29.20
18624;DHT22;9441;51.420;7.036;2023-01-01T02:44:11;15.10;27.50
18624;DHT22;9441;51.420;7.036;2023-01-01T02:45:13;15.10;30.40
18624;DHT22;9441;51.420;7.036;2023-01-01T02:46:14;15.00;30.70
18624;DHT22;9441;51.420;7.036;2023-01-01T02:47:18;14.90;38.10
18624;DHT22;9441;51.420;7.036;2023-01-01T02:48:39;14.90;37.60
18624;DHT22;9441;51.420;7.036;2023-01-01T02:49:48;15.00;28.10
18624;DHT22;9441;51.420;7.036;2023-01-01T02:50:52;15.10;28.10
18624;DHT22;9441;51.420;7.036;2023-01-01T02:52:01;15.10;24.10
18624;DHT22;9441;51.420;7.036;2023-01-01T02:53:13;15.10;24.50
18624;DHT22;9441;51.420;7.036;2023-01-01T02:54:24;15.10;26.00
18624;DHT22;9441;51.420;7.036;2023-01-01T02:55:36;15.10;22.90
18624;DHT22;9441;51.420;7.036;2023-01-01T02:56:44;15.00;30.40
18624;DHT22;9441;51.420;7.036;2023-01-01T02:57:51;14.90;30.00
18624;DHT22;9441;51.420;7.036;2023-01-01T02:59:03;14.90;34.10
18624;DHT22;9441;51.420;7.036;2023-01-01T03:00:26;14.90;28.40
18624;DHT22;9441;51.420;7.036;2023-01-01T03:01:34;15.00;25.20
18624;DHT22;9441;51.420;7.036;2023-01-01T03:02:41;14.90;27.60
18624;DHT22;9441;51.420;7.036;2023-01-01T03:03:55;14.90;28.40
18624;DHT22;9441;51.420;7.036;2023-01-01T03:05:04;14.90;27.00
18624;DHT22;9441;51.420;7.036;2023-01-01T03:06:14;14.90;26.90
18624;DHT22;9441;51.420;7.036;2023-01-01T03:07:27;15.00;25.10
18624;DHT22;9441;51.420;7.036;2023-01-01T03:08:40;15.00;23.70
18624;DHT22;9441;51.420;7.036;2023-01-01T03:09:52;15.00;24.40
18624;DHT22;9441;51.420;7.036;2023-01-01T03:10:59;14.90;31.50
18624;DHT22;9441;51.420;7.036;2023-01-01T03:12:07;14.90;30.90
18624;DHT22;9441;51.420;7.036;2023-01-01T03:13:18;14.80;30.20
18624;DHT22;9441;51.420;7.036;2023-01-01T03:14:24;14.80;33.30
18624;DHT22;9441;51.420;7.036;2023-01-01T03:15:33;14.80;39.50
18624;DHT22;9441;51.420;7.036;2023-01-01T03:16:40;14.80;31.10
18624;DHT22;9441;51.420;7.036;2023-01-01T03:17:47;14.80;38.40
18624;DHT22;9441;51.420;7.036;2023-01-01T03:18:56;14.70;41.80
18624;DHT22;9441;51.420;7.036;2023-01-01T03:20:16;14.80;40.20
18624;DHT22;9441;51.420;7.036;2023-01-01T03:21:21;14.90;30.80
18624;DHT22;9441;51.420;7.036;2023-01-01T03:22:27;14.90;28.60
18624;DHT22;9441;51.420;7.036;2023-01-01T03:23:34;14.80;28.70
18624;DHT22;9441;51.420;7.036;2023-01-01T03:24:41;14.80;30.70
18624;DHT22;9441;51.420;7.036;2023-01-01T03:25:47;14.90;28.20
18624;DHT22;9441;51.420;7.036;2023-01-01T03:26:53;14.80;33.10
18624;DHT22;9441;51.420;7.036;2023-01-01T03:27:58;14.80;35.90
18624;DHT22;9441;51.420;7.036;2023-01-01T03:29:01;14.80;41.10
18624;DHT22;9441;51.420;7.036;2023-01-01T03:30:07;14.70;39.40
18624;DHT22;9441;51.420;7.036;2023-01-01T03:31:14;14.80;39.20
18624;DHT22;9441;51.420;7.036;2023-01-01T03:32:22;14.70;46.10
18624;DHT22;9441;51.420;7.036;2023-01-01T03:33:48;14.70;39.10
18624;DHT22;9441;51.420;7.036;2023-01-01T03:34:52;14.70;42.60
18624;DHT22;9441;51.420;7.036;2023-01-01T03:35:59;14.70;42.80
18624;DHT22;9441;51.420;7.036;2023-01-01T03:37:06;14.70;40.50
18624;DHT22;9441;51.420;7.036;2023-01-01T03:38:12;14.70;37.60
18624;DHT22;9441;51.420;7.036;2023-01-01T03:39:18;14.80;36.60
18624;DHT22;9441;51.420;7.036;2023-01-01T03:40:21;14.80;45.50
18624;DHT22;9441;51.420;7.036;2023-01-01T03:41:26;14.70;51.20
18624;DHT22;9441;51.420;7.036;2023-01-01T03:42:35;14.70;46.70
18624;DHT22;9441;51.420;7.036;2023-01-01T03:43:43;14.70;44.70
18624;DHT22;9441;51.420;7.036;2023-01-01T03:44:49;14.70;44.50
18624;DHT22;9441;51.420;7.036;2023-01-01T03:45:53;14.80;39.50
18624;DHT22;9441;51.420;7.036;2023-01-01T03:46:57;14.80;40.00
18624;DHT22;9441;51.420;7.036;2023-01-01T03:48:00;14.80;44.00
18624;DHT22;9441;51.420;7.036;2023-01-01T03:49:02;14.70;43.00
18624;DHT22;9441;51.420;7.036;2023-01-01T03:50:06;14.70;48.80
18624;DHT22;9441;51.420;7.036;2023-01-01T03:51:12;14.70;46.00
18624;DHT22;9441;51.420;7.036;2023-01-01T03:52:25;14.80;40.00
18624;DHT22;9441;51.420;7.036;2023-01-01T03:53:37;14.80;44.30
18624;DHT22;9441;51.420;7.036;2023-01-01T03:54:44;14.70;49.20
18624;DHT22;9441;51.420;7.036;2023-01-01T03:55:48;14.80;42.70
18624;DHT22;9441;51.420;7.036;2023-01-01T03:56:55;14.80;43.30
18624;DHT22;9441;51.420;7.036;2023-01-01T03:58:02;14.70;47.50
18624;DHT22;9441;51.420;7.036;2023-01-01T03:59:09;14.80;43.50
18624;DHT22;9441;51.420;7.036;2023-01-01T04:00:13;14.70;48.20
18624;DHT22;9441;51.420;7.036;2023-01-01T04:01:21;14.70;45.60
18624;DHT22;9441;51.420;7.036;2023-01-01T04:02:30;14.70;47.30
18624;DHT22;9441;51.420;7.036;2023-01-01T04:03:33;14.70;55.40
18624;DHT22;9441;51.420;7.036;2023-01-01T04:04:37;14.70;55.10
18624;DHT22;9441;51.420;7.036;2023-01-01T04:05:40;14.70;54.30
18624;DHT22;9441;51.420;7.036;2023-01-01T04:06:42;14.80;53.20
18624;DHT22;9441;51.420;7.036;2023-01-01T04:07:45;14.70;55.80
18624;DHT22;9441;51.420;7.036;2023-01-01T04:08:50;14.70;53.90
18624;DHT22;9441;51.420;7.036;2023-01-01T04:09:55;14.70;58.00
18624;DHT22;9441;51.420;7.036;2023-01-01T04:10:59;14.70;59.80
18624;DHT22;9441;51.420;7.036;2023-01-01T04:12:23;14.80;56.70
18624;DHT22;9441;51.420;7.036;2023-01-01T04:13:28;14.80;68.00
18624;DHT22;9441;51.420;7.036;2023-01-01T04:14:30;14.80;73.80
18624;DHT22;9441;51.420;7.036;2023-01-01T04:15:33;14.80;85.50
18624;DHT22;9441;51.420;7.036;2023-01-01T04:16:36;14.70;88.40
18624;DHT22;9441;51.420;7.036;2023-01-01T04:17:38;14.70;95.00
18624;DHT22;9441;51.420;7.036;2023-01-01T04:18:40;14.80;86.00
18624;DHT22;9441;51.420;7.036;2023-01-01T04:19:41;14.80;90.20
18624;DHT22;9441;51.420;7.036;2023-01-01T04:20:43;14.80;89.90
18624;DHT22;9441;51.420;7.036;2023-01-01T04:21:44;14.70;99.90
18624;DHT22;9441;51.420;7.036;2023-01-01T04:22:46;14.60;99.90
18624;DHT22;9441;51.420;7.036;2023-01-01T04:23:49;14.60;99.90
18624;DHT22;9441;51.420;7.036;2023-01-01T04:24:50;14.70;98.80
18624;DHT22;9441;51.420;7.036;2023-01-01T04:25:51;14.80;92.50
18624;DHT22;9441;51.420;7.036;2023-01-01T04:26:53;14.80;93.60
18624;DHT22;9441;51.420;7.036;2023-01-01T04:27:56;14.80;92.40
18624;DHT22;9441;51.420;7.036;2023-01-01T04:28:57;14.80;92.50
18624;DHT22;9441;51.420;7.036;2023-01-01T04:29:59;14.80;97.30
18624;DHT22;9441;51.420;7.036;2023-01-01T04:31:01;14.80;91.40
18624;DHT22;9441;51.420;7.036;2023-01-01T04:32:03;14.80;92.50
18624;DHT22;9441;51.420;7.036;2023-01-01T04:33:06;14.80;93.00
18624;DHT22;9441;51.420;7.036;2023-01-01T04:34:08;14.80;95.00
18624;DHT22;9441;51.420;7.036;2023-01-01T04:35:11;14.80;94.40
18624;DHT22;9441;51.420;7.036;2023-01-01T04:36:14;14.80;97.80
18624;DHT22;9441;51.420;7.036;2023-01-01T04:37:15;14.70;97.80
18624;DHT22;9441;51.420;7.036;2023-01-01T04:38:17;14.80;95.20
18624;DHT22;9441;51.420;7.036;2023-01-01T04:39:18;14.80;94.20
18624;DHT22;9441;51.420;7.036;2023-01-01T04:40:20;14.90;93.90
18624;DHT22;9441;51.420;7.036;2023-01-01T04:41:21;14.80;99.90
18624;DHT22;9441;51.420;7.036;2023-01-01T04:42:23;14.80;98.00
18624;DHT22;9441;51.420;7.036;2023-01-01T04:43:24;14.80;99.90
18624;DHT22;9441;51.420;7.036;2023-01-01T04:44:26;14.80;99.50
18624;DHT22;9441;51.420;7.036;2023-01-01T04:45:27;14.80;99.90
18624;DHT22;9441;51.420;7.036;2023-01-01T04:46:29;14.80;99.90
18624;DHT22;9441;51.420;7.036;2023-01-01T04:47:30;14.90;99.90
18624;DHT22;9441;51.420;7.036;2023-01-01T04:48:34;14.90;99.60
18624;DHT22;9441;51.420;7.036;2023-01-01T04:49:36;14.80;99.90
18624;DHT22;9441;51.420;7.036;2023-01-01T04:50:38;14.90;99.90
18624;DHT22;9441;51.420;7.036;2023-01-01T04:51:39;14.80;99.90
18624;DHT22;9441;51.420;7.036;2023-01-01T04:52:41;14.80;99.90
18624;DHT22;9441;51.420;7.036;2023-01-01T04:53:42;14.90;99.90
18624;DHT22;9441;51.420;7.036;2023-01-01T04:54:44;14.90;99.90
18624;DHT22;9441;51.420;7.036;2023-01-01T04:55:46;14.90;99.90
18624;DHT22;9441;51.420;7.036;2023-01-01T04:56:47;14.80;99.90
18624;DHT22;9441;51.420;7.036;2023-01-01T04:57:49;14.80;99.90
18624;DHT22;9441;51.420;7.036;2023-01-01T04:58:50;14.90;99.90
18624;DHT22;9441;51.420;7.036;2023-01-01T04:59:52;14.80;99.90
18624;DHT22;9441;51.420;7.036;2023-01-01T05:00:53;14.70;99.90
18624;DHT22;9441;51.420;7.036;2023-01-01T05:01:55;14.80;99.90
18624;DHT22;9441;51.420;7.036;2023-01-01T05:02:56;14.80;99.90
18624;DHT22;9441;51.420;7.036;2023-01-01T05:04:00;14.80;99.90
18624;DHT22;9441;51.420;7.036;2023-01-01T05:05:02;14.80;99.90
18624;DHT22;9441;51.420;7.036;2023-01-01T05:06:05;14.70;99.90
18624;DHT22;9441;51.420;7.036;2023-01-01T05:07:08;14.70;99.90
18624;DHT22;9441;51.420;7.036;2023-01-01T05:08:09;14.80;99.90
18624;DHT22;9441;51.420;7.036;2023-01-01T05:09:11;14.70;99.90
18624;DHT22;9441;51.420;7.036;2023-01-01T05:10:12;14.70;99.90
18624;DHT22;9441;51.420;7.036;2023-01-01T05:11:17;14.80;99.90
18624;DHT22;9441;51.420;7.036;2023-01-01T05:12:20;14.70;99.90
18624;DHT22;9441;51.420;7.036;2023-01-01T05:13:21;14.70;99.90
18624;DHT22;9441;51.420;7.036;2023-01-01T05:14:23;14.70;99.90
18624;DHT22;9441;51.420;7.036;2023-01-01T05:15:24;14.80;99.90
18624;DHT22;9441;51.420;7.036;2023-01-01T05:16:27;14.80;99.90
18624;DHT22;9441;51.420;7.036;2023-01-01T05:17:29;14.80;99.90
18624;DHT22;9441;51.420;7.036;2023-01-01T05:18:31;14.80;99.90
18624;DHT22;9441;51.420;7.036;2023-01-01T05:19:34;14.70;99.90
18624;DHT22;9441;51.420;7.036;2023-01-01T05:20:36;14.80;99.90
18624;DHT22;9441;51.420;7.036;2023-01-01T05:21:39;14.70;99.90
18624;DHT22;9441;51.420;7.036;2023-01-01T05:22:41;14.70;99.90
18624;DHT22;9441;51.420;7.036;2023-01-01T05:23:42;14.80;99.90
18624;DHT22;9441;51.420;7.036;2023-01-01T05:24:44;14.70;99.90
18624;DHT22;9441;51.420;7.036;2023-01-01T05:25:45;14.70;99.90
18624;DHT22;9441;51.420;7.036;2023-01-01T05:26:47;14.60;99.90
18624;DHT22;9441;51.420;7.036;2023-01-01T05:27:48;14.60;99.90
18624;DHT22;9441;51.420;7.036;2023-01-01T05:28:50;14.60;99.90
18624;DHT22;9441;51.420;7.036;2023-01-01T05:29:51;14.70;99.90
18624;DHT22;9441;51.420;7.036;2023-01-01T05:30:53;14.60;99.90
18624;DHT22;9441;51.420;7.036;2023-01-01T05:31:54;14.70;99.90
18624;DHT22;9441;51.420;7.036;2023-01-01T05:32:56;14.70;99.90
18624;DHT22;9441;51.420;7.036;2023-01-01T05:33:57;14.70;99.90
18624;DHT22;9441;51.420;7.036;2023-01-01T05:35:01;14.60;99.90
18624;DHT22;9441;51.420;7.036;2023-01-01T05:36:03;14.60;99.90
18624;DHT22;9441;51.420;7.036;2023-01-01T05:37:06;14.60;99.90
18624;DHT22;9441;51.420;7.036;2023-01-01T05:38:07;14.60;99.90
18624;DHT22;9441;51.420;7.036;2023-01-01T05:39:10;14.60;99.90
18624;DHT22;9441;51.420;7.036;2023-01-01T05:40:12;14.50;99.90
18624;DHT22;9441;51.420;7.036;2023-01-01T05:41:15;14.50;99.90
18624;DHT22;9441;51.420;7.036;2023-01-01T05:42:17;14.50;99.90
18624;DHT22;9441;51.420;7.036;2023-01-01T05:43:19;14.50;99.90
18624;DHT22;9441;51.420;7.036;2023-01-01T05:44:20;14.60;99.90
18624;DHT22;9441;51.420;7.036;2023-01-01T05:45:22;14.60;99.90
18624;DHT22;9441;51.420;7.036;2023-01-01T05:46:24;14.60;99.90
18624;DHT22;9441;51.420;7.036;2023-01-01T05:47:27;14.60;99.90
18624;DHT22;9441;51.420;7.036;2023-01-01T05:48:28;14.60;99.90
18624;DHT22;9441;51.420;7.036;2023-01-01T05:49:30;14.60;99.90
18624;DHT22;9441;51.420;7.036;2023-01-01T05:50:32;14.50;99.90
18624;DHT22;9441;51.420;7.036;2023-01-01T05:51:35;14.50;99.90
18624;DHT22;9441;51.420;7.036;2023-01-01T05:52:38;14.50;99.90
18624;DHT22;9441;51.420;7.036;2023-01-01T05:53:39;14.50;99.90
18624;DHT22;9441;51.420;7.036;2023-01-01T05:54:41;14.50;99.90
18624;DHT22;9441;51.420;7.036;2023-01-01T05:55:42;14.50;99.90
18624;DHT22;9441;51.420;7.036;2023-01-01T05:56:44;14.50;99.90
18624;DHT22;9441;51.420;7.036;2023-01-01T05:57:45;14.40;99.90
18624;DHT22;9441;51.420;7.036;2023-01-01T05:58:47;14.30;99.90
18624;DHT22;9441;51.420;7.036;2023-01-01T05:59:48;14.40;99.90
18624;DHT22;9441;51.420;7.036;2023-01-01T06:00:52;14.30;99.90
18624;DHT22;9441;51.420;7.036;2023-01-01T06:01:53;14.30;99.90
18624;DHT22;9441;51.420;7.036;2023-01-01T06:02:55;14.30;99.90
18624;DHT22;9441;51.420;7.036;2023-01-01T06:03:57;14.30;99.90
18624;DHT22;9441;51.420;7.036;2023-01-01T06:04:59;14.40;99.90
18624;DHT22;9441;51.420;7.036;2023-01-01T06:06:06;14.30;99.90
18624;DHT22;9441;51.420;7.036;2023-01-01T06:07:08;14.30;99.90
18624;DHT22;9441;51.420;7.036;2023-01-01T06:08:10;14.30;99.90
18624;DHT22;9441;51.420;7.036;2023-01-01T06:09:12;14.20;1.00
18624;DHT22;9441;51.420;7.036;2023-01-01T06:10:13;14.20;1.00
18624;DHT22;9441;51.420;7.036;2023-01-01T06:11:15;14.10;1.00
18624;DHT22;9441;51.420;7.036;2023-01-01T06:12:16;14.10;1.00
18624;DHT22;9441;51.420;7.036;2023-01-01T06:13:18;14.10;1.00
18624;DHT22;9441;51.420;7.036;2023-01-01T06:14:19;14.00;1.00
18624;DHT22;9441;51.420;7.036;2023-01-01T06:15:23;14.10;1.00
18624;DHT22;9441;51.420;7.036;2023-01-01T06:16:24;14.10;1.00
18624;DHT22;9441;51.420;7.036;2023-01-01T06:17:26;14.10;1.00
18624;DHT22;9441;51.420;7.036;2023-01-01T06:18:29;14.00;1.00
18624;DHT22;9441;51.420;7.036;2023-01-01T06:19:31;14.00;1.00
18624;DHT22;9441;51.420;7.036;2023-01-01T06:20:32;14.10;1.00
18624;DHT22;9441;51.420;7.036;2023-01-01T06:21:35;14.10;1.00
18624;DHT22;9441;51.420;7.036;2023-01-01T06:22:36;14.10;1.00
18624;DHT22;9441;51.420;7.036;2023-01-01T06:23:39;14.20;1.00
18624;DHT22;9441;51.420;7.036;2023-01-01T06:24:40;14.20;1.00
18624;DHT22;9441;51.420;7.036;2023-01-01T06:25:42;14.20;1.00
18624;DHT22;9441;51.420;7.036;2023-01-01T06:26:43;14.20;1.00
18624;DHT22;9441;51.420;7.036;2023-01-01T06:27:45;14.20;1.00
18624;DHT22;9441;51.420;7.036;2023-01-01T06:28:47;14.20;1.00
18624;DHT22;9441;51.420;7.036;2023-01-01T06:29:50;14.20;1.00
18624;DHT22;9441;51.420;7.036;2023-01-01T06:30:51;14.30;99.90
18624;DHT22;9441;51.420;7.036;2023-01-01T06:31:53;14.30;99.90
18624;DHT22;9441;51.420;7.036;2023-01-01T06:32:54;14.30;99.90
18624;DHT22;9441;51.420;7.036;2023-01-01T06:33:56;14.30;99.90
18624;DHT22;9441;51.420;7.036;2023-01-01T06:34:58;14.30;99.90
18624;DHT22;9441;51.420;7.036;2023-01-01T06:36:01;14.20;1.00
18624;DHT22;9441;51.420;7.036;2023-01-01T06:37:04;14.30;1.00
18624;DHT22;9441;51.420;7.036;2023-01-01T06:38:06;14.20;1.00
18624;DHT22;9441;51.420;7.036;2023-01-01T06:39:07;14.40;99.90
18624;DHT22;9441;51.420;7.036;2023-01-01T06:40:10;14.40;99.90
18624;DHT22;9441;51.420;7.036;2023-01-01T06:41:14;14.30;99.90
18624;DHT22;9441;51.420;7.036;2023-01-01T06:42:15;14.40;99.90
18624;DHT22;9441;51.420;7.036;2023-01-01T06:43:17;14.40;99.90
18624;DHT22;9441;51.420;7.036;2023-01-01T06:44:18;14.40;99.90
18624;DHT22;9441;51.420;7.036;2023-01-01T06:45:20;14.30;99.90
18624;DHT22;9441;51.420;7.036;2023-01-01T06:46:23;14.40;99.90
18624;DHT22;9441;51.420;7.036;2023-01-01T06:47:26;14.40;99.90
18624;DHT22;9441;51.420;7.036;2023-01-01T06:48:28;14.40;99.90
18624;DHT22;9441;51.420;7.036;2023-01-01T06:49:30;14.40;99.90
18624;DHT22;9441;51.420;7.036;2023-01-01T06:50:32;14.50;99.90
18624;DHT22;9441;51.420;7.036;2023-01-01T06:51:36;14.50;99.90
18624;DHT22;9441;51.420;7.036;2023-01-01T06:52:40;14.50;99.90